sensor_id;sensor_type;location;lat;lon;timestamp;pressure;altitude;pressure_sealevel;temperature;humidity
19600;BME280;9947;57.722;12.012;2023-08-24T00:01:47;101082.38;;;14.30;100.00
19600;BME280;9947;57.722;12.012;2023-08-24T00:04:26;101080.03;;;14.26;100.00
19600;BME280;9947;57.722;12.012;2023-08-24T00:06:55;101072.75;;;14.26;100.00
19600;BME280;9947;57.722;12.012;2023-08-24T00:09:27;101059.50;;;14.33;100.00
19600;BME280;9947;57.722;12.012;2023-08-24T00:12:01;101056.91;;;14.31;100.00
19600;BME280;9947;57.722;12.012;2023-08-24T00:17:01;101046.50;;;14.36;100.00
19600;BME280;9947;57.722;12.012;2023-08-24T00:19:28;101043.50;;;14.39;100.00
19600;BME280;9947;57.722;12.012;2023-08-24T00:21:56;101040.66;;;14.41;100.00
19600;BME280;9947;57.722;12.012;2023-08-24T00:24:36;101033.91;;;14.35;100.00
19600;BME280;9947;57.722;12.012;2023-08-24T00:27:07;101026.47;;;14.37;100.00
19600;BME280;9947;57.722;12.012;2023-08-24T00:29:36;101030.19;;;14.36;100.00
19600;BME280;9947;57.722;12.012;2023-08-24T00:32:14;101024.47;;;14.39;100.00
19600;BME280;9947;57.722;12.012;2023-08-24T00:34:42;101024.88;;;14.35;100.00
19600;BME280;9947;57.722;12.012;2023-08-24T00:37:17;101017.09;;;14.30;100.00
19600;BME280;9947;57.722;12.012;2023-08-24T00:39:59;101021.81;;;14.28;100.00
19600;BME280;9947;57.722;12.012;2023-08-24T00:42:27;101017.84;;;14.32;100.00
19600;BME280;9947;57.722;12.012;2023-08-24T00:44:57;101015.59;;;14.37;100.00
19600;BME280;9947;57.722;12.012;2023-08-24T00:47:25;100999.41;;;14.36;100.00
19600;BME280;9947;57.722;12.012;2023-08-24T00:49:52;100997.09;;;14.31;100.00
19600;BME280;9947;57.722;12.012;2023-08-24T00:52:20;101005.50;;;14.28;100.00
19600;BME280;9947;57.722;12.012;2023-08-24T00:54:52;101005.03;;;14.23;100.00
19600;BME280;9947;57.722;12.012;2023-08-24T00:57:21;101007.91;;;14.22;100.00
19600;BME280;9947;57.722;12.012;2023-08-24T00:59:49;101005.31;;;14.20;100.00
19600;BME280;9947;57.722;12.012;2023-08-24T01:02:17;101008.44;;;14.15;100.00
19600;BME280;9947;57.722;12.012;2023-08-24T01:04:46;101005.78;;;14.04;100.00
19600;BME280;9947;57.722;12.012;2023-08-24T01:07:22;101014.59;;;13.97;100.00
19600;BME280;9947;57.722;12.012;2023-08-24T01:09:54;101006.84;;;13.92;100.00
19600;BME280;9947;57.722;12.012;2023-08-24T01:12:28;101020.38;;;13.82;100.00
19600;BME280;9947;57.722;12.012;2023-08-24T01:15:09;101009.53;;;13.82;100.00
19600;BME280;9947;57.722;12.012;2023-08-24T01:17:47;101015.09;;;13.81;100.00
19600;BME280;9947;57.722;12.012;2023-08-24T01:20:18;101020.28;;;13.73;100.00
19600;BME280;9947;57.722;12.012;2023-08-24T01:23:09;101017.03;;;13.79;100.00
19600;BME280;9947;57.722;12.012;2023-08-24T01:25:51;101011.53;;;13.69;100.00
19600;BME280;9947;57.722;12.012;2023-08-24T01:28:22;101014.41;;;13.68;100.00
19600;BME280;9947;57.722;12.012;2023-08-24T01:30:52;101010.56;;;13.70;100.00
19600;BME280;9947;57.722;12.012;2023-08-24T01:33:21;100993.22;;;13.82;100.00
19600;BME280;9947;57.722;12.012;2023-08-24T01:35:49;101003.41;;;13.90;100.00
19600;BME280;9947;57.722;12.012;2023-08-24T01:38:18;100981.69;;;13.90;100.00
19600;BME280;9947;57.722;12.012;2023-08-24T01:40:53;100991.94;;;13.86;100.00
19600;BME280;9947;57.722;12.012;2023-08-24T01:43:30;100996.38;;;13.87;100.00
19600;BME280;9947;57.722;12.012;2023-08-24T01:46:03;100999.09;;;13.87;100.00
19600;BME280;9947;57.722;12.012;2023-08-24T01:48:33;100996.38;;;13.87;100.00
19600;BME280;9947;57.722;12.012;2023-08-24T01:51:04;100990.38;;;13.84;100.00
19600;BME280;9947;57.722;12.012;2023-08-24T01:53:34;100980.63;;;13.81;100.00
19600;BME280;9947;57.722;12.012;2023-08-24T01:56:08;100990.22;;;13.85;100.00
19600;BME280;9947;57.722;12.012;2023-08-24T01:58:38;100984.66;;;13.87;100.00
19600;BME280;9947;57.722;12.012;2023-08-24T02:01:08;100988.84;;;13.91;100.00
19600;BME280;9947;57.722;12.012;2023-08-24T02:03:36;100983.41;;;13.91;100.00
19600;BME280;9947;57.722;12.012;2023-08-24T02:06:06;100983.13;;;13.94;100.00
19600;BME280;9947;57.722;12.012;2023-08-24T02:08:54;100981.28;;;13.95;100.00
19600;BME280;9947;57.722;12.012;2023-08-24T02:11:21;100981.31;;;14.04;100.00
19600;BME280;9947;57.722;12.012;2023-08-24T02:13:51;100976.41;;;13.98;100.00
19600;BME280;9947;57.722;12.012;2023-08-24T02:16:18;100974.56;;;13.99;100.00
19600;BME280;9947;57.722;12.012;2023-08-24T02:18:48;100976.88;;;14.03;100.00
19600;BME280;9947;57.722;12.012;2023-08-24T02:21:17;100975.78;;;14.06;100.00
19600;BME280;9947;57.722;12.012;2023-08-24T02:23:49;100980.47;;;14.04;100.00
19600;BME280;9947;57.722;12.012;2023-08-24T02:26:17;100984.16;;;14.03;100.00
19600;BME280;9947;57.722;12.012;2023-08-24T02:28:45;100993.31;;;14.02;100.00
19600;BME280;9947;57.722;12.012;2023-08-24T02:31:17;100980.34;;;14.05;100.00
19600;BME280;9947;57.722;12.012;2023-08-24T02:33:45;100985.66;;;14.07;100.00
19600;BME280;9947;57.722;12.012;2023-08-24T02:36:16;100987.63;;;14.05;100.00
19600;BME280;9947;57.722;12.012;2023-08-24T02:38:43;100975.78;;;14.06;100.00
19600;BME280;9947;57.722;12.012;2023-08-24T02:41:14;100978.09;;;14.10;100.00
19600;BME280;9947;57.722;12.012;2023-08-24T02:43:41;100979.66;;;14.13;100.00
19600;BME280;9947;57.722;12.012;2023-08-24T02:46:09;100981.41;;;14.14;100.00
19600;BME280;9947;57.722;12.012;2023-08-24T02:48:38;100977.69;;;14.15;100.00
19600;BME280;9947;57.722;12.012;2023-08-24T02:51:07;100987.25;;;14.09;100.00
19600;BME280;9947;57.722;12.012;2023-08-24T02:53:37;100979.66;;;14.13;100.00
19600;BME280;9947;57.722;12.012;2023-08-24T02:56:08;100979.94;;;14.10;100.00
19600;BME280;9947;57.722;12.012;2023-08-24T02:58:36;100975.63;;;14.07;100.00
19600;BME280;9947;57.722;12.012;2023-08-24T03:03:55;100973.28;;;14.03;100.00
19600;BME280;9947;57.722;12.012;2023-08-24T03:06:22;100977.88;;;14.02;100.00
19600;BME280;9947;57.722;12.012;2023-08-24T03:08:50;100968.28;;;13.98;100.00
19600;BME280;9947;57.722;12.012;2023-08-24T03:11:19;100973.84;;;13.97;100.00
19600;BME280;9947;57.722;12.012;2023-08-24T03:13:46;100980.94;;;13.88;100.00
19600;BME280;9947;57.722;12.012;2023-08-24T03:16:13;100971.25;;;13.95;100.00
19600;BME280;9947;57.722;12.012;2023-08-24T03:18:42;100970.66;;;13.92;100.00
19600;BME280;9947;57.722;12.012;2023-08-24T03:21:12;100976.25;;;13.90;100.00
19600;BME280;9947;57.722;12.012;2023-08-24T03:23:40;100976.78;;;13.84;100.00
19600;BME280;9947;57.722;12.012;2023-08-24T03:26:12;100973.53;;;13.90;100.00
19600;BME280;9947;57.722;12.012;2023-08-24T03:28:41;100981.09;;;13.86;100.00
19600;BME280;9947;57.722;12.012;2023-08-24T03:31:08;100966.22;;;13.91;100.00
19600;BME280;9947;57.722;12.012;2023-08-24T03:33:37;100978.81;;;13.92;100.00
19600;BME280;9947;57.722;12.012;2023-08-24T03:36:04;100975.09;;;13.93;100.00
19600;BME280;9947;57.722;12.012;2023-08-24T03:38:34;100975.56;;;13.98;100.00
19600;BME280;9947;57.722;12.012;2023-08-24T03:41:02;100974.44;;;14.00;100.00
19600;BME280;9947;57.722;12.012;2023-08-24T03:43:31;100972.44;;;14.02;100.00
19600;BME280;9947;57.722;12.012;2023-08-24T03:45:58;100979.47;;;14.05;100.00
19600;BME280;9947;57.722;12.012;2023-08-24T03:48:26;100986.88;;;14.03;100.00
19600;BME280;9947;57.722;12.012;2023-08-24T03:50:54;100993.94;;;14.05;100.00
19600;BME280;9947;57.722;12.012;2023-08-24T03:53:22;100995.78;;;14.05;100.00
19600;BME280;9947;57.722;12.012;2023-08-24T03:55:54;100990.22;;;14.06;100.00
19600;BME280;9947;57.722;12.012;2023-08-24T03:58:21;100981.94;;;14.08;100.00
19600;BME280;9947;57.722;12.012;2023-08-24T04:00:50;100984.84;;;14.16;100.00
19600;BME280;9947;57.722;12.012;2023-08-24T04:03:19;100990.41;;;14.14;100.00
19600;BME280;9947;57.722;12.012;2023-08-24T04:05:47;100992.53;;;14.11;100.00
19600;BME280;9947;57.722;12.012;2023-08-24T04:08:15;100993.00;;;14.16;100.00
19600;BME280;9947;57.722;12.012;2023-08-24T04:10:44;100989.00;;;14.20;100.00
19600;BME280;9947;57.722;12.012;2023-08-24T04:13:12;100987.28;;;14.19;100.00
19600;BME280;9947;57.722;12.012;2023-08-24T04:15:40;100988.88;;;14.22;100.00
19600;BME280;9947;57.722;12.012;2023-08-24T04:18:08;100995.16;;;14.22;100.00
19600;BME280;9947;57.722;12.012;2023-08-24T04:20:37;100993.03;;;14.26;100.00
19600;BME280;9947;57.722;12.012;2023-08-24T04:23:04;100980.56;;;14.23;100.00
19600;BME280;9947;57.722;12.012;2023-08-24T04:25:31;100980.13;;;14.18;100.00
19600;BME280;9947;57.722;12.012;2023-08-24T04:28:02;100988.72;;;14.23;100.00
19600;BME280;9947;57.722;12.012;2023-08-24T04:30:31;100982.16;;;14.26;100.00
19600;BME280;9947;57.722;12.012;2023-08-24T04:33:00;100985.16;;;14.23;100.00
19600;BME280;9947;57.722;12.012;2023-08-24T04:35:33;100979.84;;;14.21;100.00
19600;BME280;9947;57.722;12.012;2023-08-24T04:38:03;100977.13;;;14.21;100.00
19600;BME280;9947;57.722;12.012;2023-08-24T04:40:47;100972.00;;;14.28;100.00
19600;BME280;9947;57.722;12.012;2023-08-24T04:43:15;100968.56;;;14.26;100.00
19600;BME280;9947;57.722;12.012;2023-08-24T04:45:45;100970.75;;;14.32;100.00
19600;BME280;9947;57.722;12.012;2023-08-24T04:48:13;100980.50;;;14.34;100.00
19600;BME280;9947;57.722;12.012;2023-08-24T04:53:09;100989.72;;;14.43;100.00
19600;BME280;9947;57.722;12.012;2023-08-24T04:55:38;100986.47;;;14.49;100.00
19600;BME280;9947;57.722;12.012;2023-08-24T04:58:07;100979.72;;;14.53;100.00
19600;BME280;9947;57.722;12.012;2023-08-24T05:00:35;100985.47;;;14.50;100.00
19600;BME280;9947;57.722;12.012;2023-08-24T05:03:06;100983.88;;;14.47;100.00
19600;BME280;9947;57.722;12.012;2023-08-24T05:05:35;100978.47;;;14.57;100.00
19600;BME280;9947;57.722;12.012;2023-08-24T05:08:04;100980.50;;;14.65;100.00
19600;BME280;9947;57.722;12.012;2023-08-24T05:10:35;100979.69;;;14.74;100.00
19600;BME280;9947;57.722;12.012;2023-08-24T05:13:05;100969.78;;;14.73;100.00
19600;BME280;9947;57.722;12.012;2023-08-24T05:15:32;100960.91;;;14.71;100.00
19600;BME280;9947;57.722;12.012;2023-08-24T05:17:59;100961.34;;;14.76;100.00
19600;BME280;9947;57.722;12.012;2023-08-24T05:20:29;100968.06;;;14.72;100.00
19600;BME280;9947;57.722;12.012;2023-08-24T05:22:56;100969.91;;;14.62;100.00
19600;BME280;9947;57.722;12.012;2023-08-24T05:25:23;100971.78;;;14.61;100.00
19600;BME280;9947;57.722;12.012;2023-08-24T05:27:52;100966.47;;;14.60;100.00
19600;BME280;9947;57.722;12.012;2023-08-24T05:30:20;100961.16;;;14.58;100.00
19600;BME280;9947;57.722;12.012;2023-08-24T05:32:49;100962.06;;;14.68;100.00
19600;BME280;9947;57.722;12.012;2023-08-24T05:35:17;100959.25;;;14.89;100.00
19600;BME280;9947;57.722;12.012;2023-08-24T05:37:47;100945.78;;;14.88;100.00
19600;BME280;9947;57.722;12.012;2023-08-24T05:40:15;100946.16;;;14.83;100.00
19600;BME280;9947;57.722;12.012;2023-08-24T05:42:42;100952.38;;;14.85;100.00
19600;BME280;9947;57.722;12.012;2023-08-24T05:45:11;100946.50;;;14.99;100.00
19600;BME280;9947;57.722;12.012;2023-08-24T05:47:38;100954.09;;;14.96;100.00
19600;BME280;9947;57.722;12.012;2023-08-24T05:50:06;100952.56;;;15.13;100.00
19600;BME280;9947;57.722;12.012;2023-08-24T05:52:33;100951.69;;;15.31;100.00
19600;BME280;9947;57.722;12.012;2023-08-24T05:55:04;100944.38;;;15.22;100.00
19600;BME280;9947;57.722;12.012;2023-08-24T05:57:31;100945.38;;;15.21;100.00
19600;BME280;9947;57.722;12.012;2023-08-24T05:59:59;100940.78;;;15.31;100.00
19600;BME280;9947;57.722;12.012;2023-08-24T06:02:26;100949.25;;;15.19;100.00
19600;BME280;9947;57.722;12.012;2023-08-24T06:04:53;100941.50;;;15.14;100.00
19600;BME280;9947;57.722;12.012;2023-08-24T06:07:21;100935.91;;;15.25;100.00
19600;BME280;9947;57.722;12.012;2023-08-24T06:09:48;100930.47;;;15.25;100.00
19600;BME280;9947;57.722;12.012;2023-08-24T06:12:17;100923.88;;;15.47;100.00
19600;BME280;9947;57.722;12.012;2023-08-24T06:14:44;100923.16;;;15.26;100.00
19600;BME280;9947;57.722;12.012;2023-08-24T06:17:11;100924.31;;;15.23;100.00
19600;BME280;9947;57.722;12.012;2023-08-24T06:19:38;100925.19;;;15.43;100.00
19600;BME280;9947;57.722;12.012;2023-08-24T06:22:07;100929.75;;;15.33;100.00
19600;BME280;9947;57.722;12.012;2023-08-24T06:24:35;100932.22;;;15.36;100.00
19600;BME280;9947;57.722;12.012;2023-08-24T06:27:03;100934.94;;;15.36;100.00
19600;BME280;9947;57.722;12.012;2023-08-24T06:29:32;100929.31;;;15.57;100.00
19600;BME280;9947;57.722;12.012;2023-08-24T06:31:59;100928.75;;;15.72;100.00
19600;BME280;9947;57.722;12.012;2023-08-24T06:34:26;100926.41;;;15.97;100.00
19600;BME280;9947;57.722;12.012;2023-08-24T06:36:54;100920.84;;;16.26;100.00
19600;BME280;9947;57.722;12.012;2023-08-24T06:39:21;100921.59;;;16.18;100.00
19600;BME280;9947;57.722;12.012;2023-08-24T06:41:50;100919.28;;;16.23;100.00
19600;BME280;9947;57.722;12.012;2023-08-24T06:44:19;100922.13;;;16.31;100.00
19600;BME280;9947;57.722;12.012;2023-08-24T06:46:48;100920.69;;;16.27;100.00
19600;BME280;9947;57.722;12.012;2023-08-24T06:49:16;100915.91;;;16.39;100.00
19600;BME280;9947;57.722;12.012;2023-08-24T06:51:45;100920.41;;;16.30;100.00
19600;BME280;9947;57.722;12.012;2023-08-24T06:54:15;100924.38;;;16.36;100.00
19600;BME280;9947;57.722;12.012;2023-08-24T06:56:44;100932.63;;;16.26;100.00
19600;BME280;9947;57.722;12.012;2023-08-24T06:59:12;100943.81;;;16.70;100.00
19600;BME280;9947;57.722;12.012;2023-08-24T07:01:39;100940.50;;;16.29;100.00
19600;BME280;9947;57.722;12.012;2023-08-24T07:04:08;100942.78;;;16.71;100.00
19600;BME280;9947;57.722;12.012;2023-08-24T07:06:36;100927.56;;;16.96;100.00
19600;BME280;9947;57.722;12.012;2023-08-24T07:09:04;100924.44;;;17.26;100.00
19600;BME280;9947;57.722;12.012;2023-08-24T07:11:32;100925.56;;;16.88;100.00
19600;BME280;9947;57.722;12.012;2023-08-24T07:14:00;100929.56;;;17.12;100.00
19600;BME280;9947;57.722;12.012;2023-08-24T07:16:29;100936.41;;;16.80;100.00
19600;BME280;9947;57.722;12.012;2023-08-24T07:18:56;100934.22;;;16.84;100.00
19600;BME280;9947;57.722;12.012;2023-08-24T07:21:27;100932.38;;;17.02;100.00
19600;BME280;9947;57.722;12.012;2023-08-24T07:23:54;100933.41;;;17.54;100.00
19600;BME280;9947;57.722;12.012;2023-08-24T07:29:13;100944.66;;;17.34;100.00
19600;BME280;9947;57.722;12.012;2023-08-24T07:31:40;100947.31;;;17.25;100.00
19600;BME280;9947;57.722;12.012;2023-08-24T07:36:47;100945.09;;;17.11;100.00
19600;BME280;9947;57.722;12.012;2023-08-24T07:39:16;100945.41;;;17.08;100.00
19600;BME280;9947;57.722;12.012;2023-08-24T07:41:48;100949.75;;;17.46;100.00
19600;BME280;9947;57.722;12.012;2023-08-24T07:44:19;100945.38;;;17.18;100.00
19600;BME280;9947;57.722;12.012;2023-08-24T07:46:49;100954.81;;;17.23;100.00
19600;BME280;9947;57.722;12.012;2023-08-24T07:49:16;100958.00;;;17.19;100.00
19600;BME280;9947;57.722;12.012;2023-08-24T07:51:46;100960.00;;;16.99;100.00
19600;BME280;9947;57.722;12.012;2023-08-24T07:54:16;100966.91;;;16.76;100.00
19600;BME280;9947;57.722;12.012;2023-08-24T07:56:43;100968.47;;;16.78;100.00
19600;BME280;9947;57.722;12.012;2023-08-24T07:59:17;100969.56;;;16.85;100.00
19600;BME280;9947;57.722;12.012;2023-08-24T08:01:47;100971.19;;;16.78;100.00
19600;BME280;9947;57.722;12.012;2023-08-24T08:04:16;100973.16;;;16.86;100.00
19600;BME280;9947;57.722;12.012;2023-08-24T08:06:43;100969.53;;;16.68;100.00
19600;BME280;9947;57.722;12.012;2023-08-24T08:09:12;100977.88;;;16.93;100.00
19600;BME280;9947;57.722;12.012;2023-08-24T08:11:42;100975.88;;;16.86;100.00
19600;BME280;9947;57.722;12.012;2023-08-24T08:14:13;100987.22;;;16.54;100.00
19600;BME280;9947;57.722;12.012;2023-08-24T08:16:44;100981.41;;;16.29;100.00
19600;BME280;9947;57.722;12.012;2023-08-24T08:19:15;100979.66;;;16.38;100.00
19600;BME280;9947;57.722;12.012;2023-08-24T08:21:46;100983.34;;;16.10;100.00
19600;BME280;9947;57.722;12.012;2023-08-24T08:24:17;100981.97;;;16.33;100.00
19600;BME280;9947;57.722;12.012;2023-08-24T08:26:46;100989.59;;;16.76;100.00
19600;BME280;9947;57.722;12.012;2023-08-24T08:29:14;100982.31;;;16.67;100.00
19600;BME280;9947;57.722;12.012;2023-08-24T08:31:43;100988.56;;;17.05;100.00
19600;BME280;9947;57.722;12.012;2023-08-24T08:34:12;100989.50;;;17.13;100.00
19600;BME280;9947;57.722;12.012;2023-08-24T08:36:40;100990.88;;;17.27;100.00
19600;BME280;9947;57.722;12.012;2023-08-24T08:39:09;100995.25;;;17.20;100.00
19600;BME280;9947;57.722;12.012;2023-08-24T08:41:42;100994.06;;;17.22;100.00
19600;BME280;9947;57.722;12.012;2023-08-24T08:44:13;100992.44;;;17.30;100.00
19600;BME280;9947;57.722;12.012;2023-08-24T08:46:42;100988.69;;;17.48;100.00
19600;BME280;9947;57.722;12.012;2023-08-24T08:49:14;100995.50;;;17.44;100.00
19600;BME280;9947;57.722;12.012;2023-08-24T08:51:48;100994.50;;;17.81;100.00
19600;BME280;9947;57.722;12.012;2023-08-24T08:54:17;100994.31;;;18.00;100.00
19600;BME280;9947;57.722;12.012;2023-08-24T08:56:50;100993.91;;;18.47;100.00
19600;BME280;9947;57.722;12.012;2023-08-24T08:59:17;101000.84;;;18.59;100.00
19600;BME280;9947;57.722;12.012;2023-08-24T09:01:46;101000.03;;;18.41;100.00
19600;BME280;9947;57.722;12.012;2023-08-24T09:04:17;100995.94;;;18.45;100.00
19600;BME280;9947;57.722;12.012;2023-08-24T09:06:45;100993.91;;;18.47;100.00
19600;BME280;9947;57.722;12.012;2023-08-24T09:09:37;100997.31;;;18.41;100.00
19600;BME280;9947;57.722;12.012;2023-08-24T09:12:10;100996.06;;;18.09;100.00
19600;BME280;9947;57.722;12.012;2023-08-24T09:14:37;100992.22;;;17.58;100.00
19600;BME280;9947;57.722;12.012;2023-08-24T09:17:10;100996.25;;;17.19;100.00
19600;BME280;9947;57.722;12.012;2023-08-24T09:19:38;100995.72;;;17.33;100.00
19600;BME280;9947;57.722;12.012;2023-08-24T09:22:08;100989.13;;;17.08;100.00
19600;BME280;9947;57.722;12.012;2023-08-24T09:24:36;100994.66;;;16.99;100.00
19600;BME280;9947;57.722;12.012;2023-08-24T09:27:17;100989.34;;;16.70;100.00
19600;BME280;9947;57.722;12.012;2023-08-24T09:29:48;100994.44;;;16.82;100.00
19600;BME280;9947;57.722;12.012;2023-08-24T09:32:21;100999.91;;;16.82;100.00
19600;BME280;9947;57.722;12.012;2023-08-24T09:34:52;100989.97;;;17.09;100.00
19600;BME280;9947;57.722;12.012;2023-08-24T09:37:19;100993.44;;;17.64;100.00
19600;BME280;9947;57.722;12.012;2023-08-24T09:39:48;100997.88;;;17.75;100.00
19600;BME280;9947;57.722;12.012;2023-08-24T09:42:27;100996.50;;;17.61;100.00
19600;BME280;9947;57.722;12.012;2023-08-24T09:44:54;100991.34;;;17.58;100.00
19600;BME280;9947;57.722;12.012;2023-08-24T09:47:22;100997.66;;;17.23;100.00
19600;BME280;9947;57.722;12.012;2023-08-24T09:49:53;100993.97;;;17.14;100.00
19600;BME280;9947;57.722;12.012;2023-08-24T09:52:21;100995.00;;;16.86;100.00
19600;BME280;9947;57.722;12.012;2023-08-24T09:54:52;101000.16;;;16.89;100.00
19600;BME280;9947;57.722;12.012;2023-08-24T09:57:23;100995.06;;;17.04;100.00
19600;BME280;9947;57.722;12.012;2023-08-24T09:59:51;100998.75;;;16.85;100.00
19600;BME280;9947;57.722;12.012;2023-08-24T10:02:23;101004.66;;;16.80;100.00
19600;BME280;9947;57.722;12.012;2023-08-24T10:04:55;101003.84;;;16.70;100.00
19600;BME280;9947;57.722;12.012;2023-08-24T10:07:25;100995.53;;;16.72;100.00
19600;BME280;9947;57.722;12.012;2023-08-24T10:09:58;101002.31;;;16.85;100.00
19600;BME280;9947;57.722;12.012;2023-08-24T10:12:41;100995.63;;;16.80;100.00
19600;BME280;9947;57.722;12.012;2023-08-24T10:15:15;100991.72;;;16.82;100.00
19600;BME280;9947;57.722;12.012;2023-08-24T10:17:43;100984.44;;;16.63;100.00
19600;BME280;9947;57.722;12.012;2023-08-24T10:20:11;100985.56;;;16.80;100.00
19600;BME280;9947;57.722;12.012;2023-08-24T10:22:40;100976.84;;;16.94;100.00
19600;BME280;9947;57.722;12.012;2023-08-24T10:25:09;100975.16;;;17.11;100.00
19600;BME280;9947;57.722;12.012;2023-08-24T10:27:44;100969.97;;;17.18;100.00
19600;BME280;9947;57.722;12.012;2023-08-24T10:30:16;100969.72;;;17.29;100.00
19600;BME280;9947;57.722;12.012;2023-08-24T10:32:47;100975.72;;;17.33;100.00
19600;BME280;9947;57.722;12.012;2023-08-24T10:35:21;100981.03;;;17.34;100.00
19600;BME280;9947;57.722;12.012;2023-08-24T10:37:59;100977.97;;;17.37;100.00
19600;BME280;9947;57.722;12.012;2023-08-24T10:40:32;100982.53;;;17.46;100.00
19600;BME280;9947;57.722;12.012;2023-08-24T10:43:05;100981.34;;;17.31;100.00
19600;BME280;9947;57.722;12.012;2023-08-24T10:46:05;100977.84;;;17.56;100.00
19600;BME280;9947;57.722;12.012;2023-08-24T10:48:58;100982.06;;;17.51;100.00
19600;BME280;9947;57.722;12.012;2023-08-24T10:51:42;100979.50;;;17.49;100.00
19600;BME280;9947;57.722;12.012;2023-08-24T10:54:11;100977.91;;;17.65;100.00
19600;BME280;9947;57.722;12.012;2023-08-24T10:56:52;100969.09;;;17.53;100.00
19600;BME280;9947;57.722;12.012;2023-08-24T10:59:34;100972.22;;;17.58;100.00
19600;BME280;9947;57.722;12.012;2023-08-24T11:02:04;100973.28;;;17.65;100.00
19600;BME280;9947;57.722;12.012;2023-08-24T11:04:33;100972.75;;;17.62;100.00
19600;BME280;9947;57.722;12.012;2023-08-24T11:07:02;100971.88;;;17.61;100.00
19600;BME280;9947;57.722;12.012;2023-08-24T11:09:45;100977.19;;;17.63;100.00
19600;BME280;9947;57.722;12.012;2023-08-24T11:12:18;100972.25;;;17.76;100.00
19600;BME280;9947;57.722;12.012;2023-08-24T11:14:51;100980.59;;;17.74;100.00
19600;BME280;9947;57.722;12.012;2023-08-24T11:17:30;100982.06;;;17.69;100.00
19600;BME280;9947;57.722;12.012;2023-08-24T11:20:21;100981.78;;;17.72;100.00
19600;BME280;9947;57.722;12.012;2023-08-24T11:22:56;100975.47;;;17.62;100.00
19600;BME280;9947;57.722;12.012;2023-08-24T11:25:28;100986.03;;;17.56;100.00
19600;BME280;9947;57.722;12.012;2023-08-24T11:27:58;100985.81;;;17.50;100.00
19600;BME280;9947;57.722;12.012;2023-08-24T11:33:31;100984.84;;;17.59;100.00
19600;BME280;9947;57.722;12.012;2023-08-24T11:36:02;100978.22;;;17.62;100.00
19600;BME280;9947;57.722;12.012;2023-08-24T11:38:38;100975.75;;;17.68;100.00
19600;BME280;9947;57.722;12.012;2023-08-24T11:41:11;100990.00;;;17.62;100.00
19600;BME280;9947;57.722;12.012;2023-08-24T11:43:39;100984.06;;;17.67;100.00
19600;BME280;9947;57.722;12.012;2023-08-24T11:46:08;100987.13;;;17.64;100.00
19600;BME280;9947;57.722;12.012;2023-08-24T11:48:39;100973.78;;;17.78;100.00
19600;BME280;9947;57.722;12.012;2023-08-24T11:51:08;100979.41;;;17.77;100.00
19600;BME280;9947;57.722;12.012;2023-08-24T11:53:40;100991.16;;;17.95;100.00
19600;BME280;9947;57.722;12.012;2023-08-24T11:56:08;100982.06;;;17.86;100.00
19600;BME280;9947;57.722;12.012;2023-08-24T11:58:37;100990.56;;;18.01;100.00
19600;BME280;9947;57.722;12.012;2023-08-24T12:01:04;100987.97;;;18.00;100.00
19600;BME280;9947;57.722;12.012;2023-08-24T12:03:34;100977.28;;;17.88;100.00
19600;BME280;9947;57.722;12.012;2023-08-24T12:06:10;100985.91;;;17.76;100.00
19600;BME280;9947;57.722;12.012;2023-08-24T12:08:38;100980.88;;;17.89;100.00
19600;BME280;9947;57.722;12.012;2023-08-24T12:11:11;100984.63;;;17.88;100.00
19600;BME280;9947;57.722;12.012;2023-08-24T12:13:43;100963.44;;;17.90;100.00
19600;BME280;9947;57.722;12.012;2023-08-24T12:16:14;100972.66;;;17.89;100.00
19600;BME280;9947;57.722;12.012;2023-08-24T12:18:51;100970.25;;;17.86;100.00
19600;BME280;9947;57.722;12.012;2023-08-24T12:21:21;100975.50;;;17.97;100.00
19600;BME280;9947;57.722;12.012;2023-08-24T12:23:59;100974.69;;;17.87;100.00
19600;BME280;9947;57.722;12.012;2023-08-24T12:26:27;100972.56;;;17.73;100.00
19600;BME280;9947;57.722;12.012;2023-08-24T12:29:00;100971.78;;;18.06;100.00
19600;BME280;9947;57.722;12.012;2023-08-24T12:31:30;100961.97;;;17.96;100.00
19600;BME280;9947;57.722;12.012;2023-08-24T12:34:01;100961.72;;;17.89;100.00
19600;BME280;9947;57.722;12.012;2023-08-24T12:36:45;100962.09;;;17.94;100.00
19600;BME280;9947;57.722;12.012;2023-08-24T12:39:14;100970.78;;;17.90;100.00
19600;BME280;9947;57.722;12.012;2023-08-24T12:41:47;100973.84;;;17.86;100.00
19600;BME280;9947;57.722;12.012;2023-08-24T12:44:14;100978.63;;;17.84;100.00
19600;BME280;9947;57.722;12.012;2023-08-24T12:46:41;100977.22;;;17.80;100.00
19600;BME280;9947;57.722;12.012;2023-08-24T12:49:13;100981.22;;;17.68;100.00
19600;BME280;9947;57.722;12.012;2023-08-24T12:51:41;100979.31;;;17.69;100.00
19600;BME280;9947;57.722;12.012;2023-08-24T12:54:11;100972.94;;;17.78;100.00
19600;BME280;9947;57.722;12.012;2023-08-24T12:56:38;100969.03;;;17.80;100.00
19600;BME280;9947;57.722;12.012;2023-08-24T12:59:08;100975.34;;;17.81;100.00
19600;BME280;9947;57.722;12.012;2023-08-24T13:01:35;100973.53;;;17.90;100.00
19600;BME280;9947;57.722;12.012;2023-08-24T13:04:10;100975.34;;;17.81;100.00
19600;BME280;9947;57.722;12.012;2023-08-24T13:06:36;100979.31;;;17.69;100.00
19600;BME280;9947;57.722;12.012;2023-08-24T13:09:04;100977.53;;;17.60;100.00
19600;BME280;9947;57.722;12.012;2023-08-24T13:11:56;100968.97;;;17.72;100.00
19600;BME280;9947;57.722;12.012;2023-08-24T13:14:23;100965.56;;;17.61;100.00